createdAt,value
2019-03-02T00:00:10.511Z,35.63
2019-03-02T00:02:39.064Z,35.73
2019-03-02T00:05:07.655Z,38.50
2019-03-02T00:07:36.094Z,40.33
2019-03-02T00:10:06.702Z,39.53
2019-03-02T00:12:36.665Z,37.00
2019-03-02T00:15:06.455Z,44.30
2019-03-02T00:17:36.547Z,39.80
2019-03-02T00:20:06.677Z,40.73
2019-03-02T00:22:35.120Z,41.17
2019-03-02T00:25:04.515Z,41.60
2019-03-02T00:27:32.952Z,43.70
2019-03-02T00:30:01.479Z,40.63
2019-03-02T00:32:29.992Z,43.00
2019-03-02T00:34:58.449Z,36.97
2019-03-02T00:37:29.628Z,42.83
2019-03-02T00:39:57.333Z,37.77
2019-03-02T00:42:25.871Z,39.23
2019-03-02T00:44:54.310Z,40.90
2019-03-02T00:47:22.901Z,39.90
2019-03-02T00:49:51.337Z,40.20
2019-03-02T00:52:20.453Z,39.70
2019-03-02T00:54:57.793Z,43.57
2019-03-02T00:57:20.142Z,42.73
2019-03-02T00:59:48.591Z,41.50
2019-03-02T01:02:17.061Z,39.07
2019-03-02T01:04:45.491Z,43.03
2019-03-02T01:07:14.033Z,41.67
2019-03-02T01:09:43.615Z,42.20
2019-03-02T01:12:13.011Z,38.47
2019-03-02T01:14:41.449Z,44.20
2019-03-02T01:17:09.977Z,41.57
2019-03-02T01:19:38.688Z,44.13
2019-03-02T01:22:07.220Z,44.67
2019-03-02T01:24:38.781Z,45.13
2019-03-02T01:27:05.858Z,48.07
2019-03-02T01:29:34.296Z,45.10
2019-03-02T01:32:02.820Z,41.87
2019-03-02T01:34:31.350Z,44.87
2019-03-02T01:36:59.944Z,46.37
2019-03-02T01:39:29.267Z,50.77
2019-03-02T01:41:58.616Z,48.27
2019-03-02T01:44:27.105Z,46.87
2019-03-02T01:46:55.536Z,45.13
2019-03-02T01:49:23.996Z,45.10
2019-03-02T01:51:54.659Z,47.27
2019-03-02T01:54:22.624Z,47.63
2019-03-02T01:56:51.243Z,46.93
2019-03-02T01:59:19.716Z,51.50
2019-03-02T02:01:48.148Z,47.87
2019-03-02T02:04:18.804Z,51.67
2019-03-02T02:06:46.832Z,49.77
2019-03-02T02:09:15.534Z,51.60
2019-03-02T02:11:44.513Z,50.87
2019-03-02T02:14:14.902Z,49.77
2019-03-02T02:16:43.210Z,52.30
2019-03-02T02:19:11.736Z,50.07
2019-03-02T02:21:40.168Z,47.93
2019-03-02T02:24:08.615Z,52.03
2019-03-02T02:26:37.056Z,51.47
2019-03-02T02:29:08.258Z,49.73
2019-03-02T02:31:44.345Z,53.03
2019-03-02T02:34:06.293Z,54.07
2019-03-02T02:36:34.805Z,56.27
2019-03-02T02:39:04.412Z,63.33
2019-03-02T02:41:32.923Z,61.03
2019-03-02T02:44:01.474Z,53.83
2019-03-02T02:46:32.521Z,61.97
2019-03-02T02:49:00.215Z,58.87
2019-03-02T02:51:28.754Z,54.97
2019-03-02T02:53:57.469Z,63.00
2019-03-02T02:56:25.928Z,66.13
2019-03-02T02:58:56.189Z,58.00
2019-03-02T03:01:33.177Z,65.50
2019-03-02T03:03:59.262Z,54.13
2019-03-02T03:06:28.602Z,62.00
2019-03-02T03:08:55.181Z,66.93
2019-03-02T03:11:23.707Z,69.90
2019-03-02T03:13:52.142Z,69.50
2019-03-02T03:16:20.606Z,71.40
2019-03-02T03:18:52.389Z,58.07
2019-03-02T03:21:27.236Z,58.67
2019-03-02T03:23:49.384Z,60.17
2019-03-02T03:26:17.836Z,65.90
2019-03-02T03:28:46.279Z,67.10
2019-03-02T03:31:23.159Z,69.13
2019-03-02T03:33:47.190Z,76.70
2019-03-02T03:36:15.148Z,69.63
2019-03-02T03:38:43.600Z,72.50
2019-03-02T03:41:12.127Z,70.23
2019-03-02T03:43:42.571Z,73.97
2019-03-02T03:46:10.792Z,71.43
2019-03-02T03:48:39.317Z,69.10
2019-03-02T03:51:07.773Z,68.03
2019-03-02T03:53:36.314Z,77.57
2019-03-02T03:56:05.605Z,71.23
2019-03-02T03:58:35.204Z,66.43
2019-03-02T04:01:04.887Z,73.77
2019-03-02T04:03:33.667Z,72.87
2019-03-02T04:06:02.131Z,68.37
2019-03-02T04:08:30.661Z,80.60
2019-03-02T04:11:00.314Z,82.23
2019-03-02T04:13:29.289Z,77.47
2019-03-02T04:15:57.801Z,79.40
2019-03-02T04:18:41.628Z,79.57
2019-03-02T04:21:10.130Z,77.87
2019-03-02T04:23:38.665Z,83.73
2019-03-02T04:26:07.097Z,70.30
2019-03-02T04:28:35.565Z,68.80
2019-03-02T04:31:04.534Z,81.57
2019-03-02T04:33:34.184Z,77.77
2019-03-02T04:36:09.669Z,75.33
2019-03-02T04:38:33.584Z,72.70
2019-03-02T04:41:04.081Z,70.77
2019-03-02T04:43:32.713Z,70.10
2019-03-02T04:46:01.158Z,72.00
2019-03-02T04:48:29.620Z,75.40
2019-03-02T04:50:59.612Z,70.63
2019-03-02T04:53:28.290Z,76.90
2019-03-02T04:55:56.736Z,72.00
2019-03-02T04:58:25.196Z,74.83
2019-03-02T05:00:53.640Z,83.50
2019-03-02T05:03:22.092Z,74.90
2019-03-02T05:05:50.523Z,71.83
2019-03-02T05:08:18.984Z,69.83
2019-03-02T05:10:47.424Z,74.63
2019-03-02T05:13:15.893Z,64.93
2019-03-02T05:15:44.327Z,64.50
2019-03-02T05:18:14.762Z,65.30
2019-03-02T05:20:42.954Z,65.50
2019-03-02T05:23:11.413Z,67.73
2019-03-02T05:25:39.940Z,63.80
2019-03-02T05:28:08.443Z,69.30
2019-03-02T05:30:36.888Z,63.87
2019-03-02T05:33:05.424Z,63.67
2019-03-02T05:35:33.853Z,63.30
2019-03-02T05:38:02.364Z,64.27
2019-03-02T05:40:31.600Z,59.33
2019-03-02T05:43:00.305Z,66.83
2019-03-02T05:45:28.769Z,61.33
2019-03-02T05:47:57.209Z,67.07
2019-03-02T05:50:26.533Z,62.57
2019-03-02T05:52:55.928Z,58.07
2019-03-02T05:55:24.373Z,65.47
2019-03-02T05:57:52.812Z,60.13
2019-03-02T06:00:23.139Z,68.87
2019-03-02T06:02:51.576Z,68.53
2019-03-02T06:05:20.031Z,64.97
2019-03-02T06:07:48.477Z,65.93
2019-03-02T06:10:16.937Z,70.53
2019-03-02T06:12:48.019Z,64.77
2019-03-02T06:15:16.282Z,69.27
2019-03-02T06:17:44.716Z,67.33
2019-03-02T06:20:13.729Z,66.87
2019-03-02T06:22:42.313Z,77.20
2019-03-02T06:25:20.469Z,69.70
2019-03-02T06:27:47.304Z,62.47
2019-03-02T06:30:16.876Z,61.67
2019-03-02T06:32:45.313Z,64.23
2019-03-02T06:35:14.011Z,72.63
2019-03-02T06:37:42.516Z,77.67
2019-03-02T06:40:15.921Z,72.13
2019-03-02T06:42:45.654Z,71.70
2019-03-02T06:45:17.603Z,63.40
2019-03-02T06:47:46.216Z,64.33
2019-03-02T06:50:16.014Z,58.70
2019-03-02T06:52:44.592Z,60.70
2019-03-02T06:55:14.636Z,62.77
2019-03-02T06:57:46.074Z,60.47
2019-03-02T07:00:18.240Z,62.80
2019-03-02T07:02:46.764Z,61.93
2019-03-02T07:05:15.342Z,66.17
2019-03-02T07:07:43.869Z,55.47
2019-03-02T07:10:17.686Z,51.30
2019-03-02T07:12:46.868Z,54.73
2019-03-02T07:15:15.847Z,54.77
2019-03-02T07:17:45.961Z,61.33
2019-03-02T07:20:16.585Z,54.83
2019-03-02T07:22:45.053Z,51.77
2019-03-02T07:25:14.732Z,50.40
2019-03-02T07:27:43.329Z,51.00
2019-03-02T07:30:12.600Z,50.77
2019-03-02T07:32:41.449Z,54.43
2019-03-02T07:35:10.566Z,51.50
2019-03-02T07:37:40.682Z,60.17
2019-03-02T07:40:13.360Z,53.17
2019-03-02T07:42:41.890Z,53.33
2019-03-02T07:45:13.477Z,50.97
2019-03-02T07:47:41.990Z,50.73
2019-03-02T07:50:11.480Z,49.83
2019-03-02T07:52:40.281Z,46.40
2019-03-02T07:55:14.660Z,47.73
2019-03-02T07:57:43.737Z,46.60
2019-03-02T08:00:20.157Z,45.30
2019-03-02T08:02:48.632Z,49.23
2019-03-02T08:05:17.517Z,45.43
2019-03-02T08:07:46.046Z,41.03
2019-03-02T08:10:14.574Z,44.47
2019-03-02T08:12:43.151Z,42.33
2019-03-02T08:15:20.124Z,43.57
2019-03-02T08:17:49.065Z,40.13
2019-03-02T08:20:20.712Z,42.63
2019-03-02T08:22:48.171Z,42.33
2019-03-02T08:25:16.773Z,41.70
2019-03-02T08:27:45.210Z,37.13
2019-03-02T08:30:23.789Z,37.50
2019-03-02T08:32:54.082Z,39.20
2019-03-02T08:35:22.501Z,41.33
2019-03-02T08:37:51.023Z,39.00
2019-03-02T08:40:23.289Z,36.90
2019-03-02T08:42:50.377Z,37.43
2019-03-02T08:45:19.894Z,39.80
2019-03-02T08:47:48.420Z,34.13
2019-03-02T08:50:18.815Z,37.80
2019-03-02T08:52:47.700Z,33.87
2019-03-02T08:55:22.156Z,36.50
2019-03-02T08:57:53.896Z,38.53
2019-03-02T09:00:27.424Z,32.27
2019-03-02T09:02:58.912Z,33.23
2019-03-02T09:05:42.783Z,34.97
2019-03-02T09:07:56.357Z,29.20
2019-03-02T09:10:24.865Z,30.07
2019-03-02T09:12:57.978Z,30.63
2019-03-02T09:15:30.181Z,35.80
2019-03-02T09:17:58.458Z,33.83
2019-03-02T09:20:26.915Z,32.60
2019-03-02T09:22:56.325Z,30.30
2019-03-02T09:25:27.877Z,27.27
2019-03-02T09:27:56.229Z,33.37
2019-03-02T09:30:24.737Z,31.60
2019-03-02T09:32:54.932Z,24.53
2019-03-02T09:35:23.452Z,28.17
2019-03-02T09:37:52.249Z,24.00
2019-03-02T09:40:24.301Z,22.63
2019-03-02T09:42:52.469Z,24.80
2019-03-02T09:45:21.051Z,24.70
2019-03-02T09:47:51.926Z,20.40
2019-03-02T09:50:21.724Z,25.00
2019-03-02T09:52:50.685Z,22.30
2019-03-02T09:55:20.232Z,23.13
2019-03-02T09:57:49.385Z,20.17
2019-03-02T10:00:26.114Z,21.97
2019-03-02T10:02:55.254Z,21.30
2019-03-02T10:05:26.061Z,21.20
2019-03-02T10:07:54.532Z,24.43
2019-03-02T10:10:25.228Z,20.10
2019-03-02T10:12:53.428Z,20.80
2019-03-02T10:15:29.483Z,22.70
2019-03-02T10:17:58.018Z,21.90
2019-03-02T10:20:26.531Z,22.33
2019-03-02T10:22:55.120Z,19.87
2019-03-02T10:25:26.508Z,18.67
2019-03-02T10:27:57.066Z,20.33
2019-03-02T10:30:26.160Z,18.73
2019-03-02T10:32:55.799Z,19.33
2019-03-02T10:35:25.245Z,18.30
2019-03-02T10:37:53.676Z,17.97
2019-03-02T10:40:23.311Z,15.23
2019-03-02T10:42:52.138Z,17.83
2019-03-02T10:45:21.864Z,18.00
2019-03-02T10:47:50.453Z,21.87
2019-03-02T10:50:24.949Z,17.30
2019-03-02T10:52:53.958Z,16.87
2019-03-02T10:55:23.697Z,21.40
2019-03-02T10:57:52.376Z,15.40
2019-03-02T11:00:29.750Z,16.67
2019-03-02T11:03:01.834Z,16.17
2019-03-02T11:05:48.898Z,14.83
2019-03-02T11:08:21.772Z,18.83
2019-03-02T11:11:05.920Z,17.67
2019-03-02T11:13:36.089Z,15.47
2019-03-02T11:16:06.804Z,16.30
2019-03-02T11:18:36.932Z,19.33
2019-03-02T11:21:23.252Z,16.90
2019-03-02T11:24:08.268Z,13.40
2019-03-02T11:26:56.891Z,15.63
2019-03-02T11:29:30.115Z,16.60
2019-03-02T11:32:00.471Z,17.77
2019-03-02T11:34:46.650Z,18.70
2019-03-02T11:37:25.637Z,16.10
2019-03-02T11:40:00.516Z,15.83
2019-03-02T11:42:30.647Z,13.63
2019-03-02T11:45:00.824Z,17.73
2019-03-02T11:47:46.900Z,17.27
2019-03-02T11:50:28.881Z,24.17
2019-03-02T11:53:01.677Z,17.43
2019-03-02T11:55:47.201Z,16.57
2019-03-02T11:58:23.128Z,16.87
2019-03-02T12:01:09.541Z,12.57
2019-03-02T12:03:43.022Z,14.63
2019-03-02T12:06:16.248Z,10.30
2019-03-02T12:08:54.859Z,13.10
2019-03-02T12:11:24.361Z,12.27
2019-03-02T12:14:10.210Z,12.47
2019-03-02T12:16:47.585Z,15.83
2019-03-02T12:19:20.733Z,15.47
2019-03-02T12:22:06.221Z,14.57
2019-03-02T12:24:36.401Z,13.13
2019-03-02T12:27:18.815Z,14.10
2019-03-02T12:29:50.875Z,13.00
2019-03-02T12:32:23.826Z,17.27
2019-03-02T12:35:05.447Z,14.50
2019-03-02T12:37:37.327Z,15.50
2019-03-02T12:40:10.409Z,13.77
2019-03-02T12:42:43.500Z,14.90
2019-03-02T12:45:16.829Z,13.57
2019-03-02T12:47:55.964Z,15.93
2019-03-02T12:50:28.098Z,14.40
2019-03-02T12:53:16.230Z,11.93
2019-03-02T12:55:56.820Z,10.80
2019-03-02T12:58:42.029Z,9.73
2019-03-02T13:01:27.511Z,10.13
2019-03-02T13:04:09.352Z,15.80
2019-03-02T13:06:41.016Z,14.63
2019-03-02T13:09:18.838Z,12.60
2019-03-02T13:11:48.924Z,14.33
2019-03-02T13:14:34.452Z,16.17
2019-03-02T13:17:10.707Z,13.90
2019-03-02T13:19:40.813Z,15.17
2019-03-02T13:22:13.444Z,12.47
2019-03-02T13:24:53.806Z,9.93
2019-03-02T13:27:27.420Z,13.30
2019-03-02T13:30:12.831Z,13.70
2019-03-02T13:32:57.942Z,8.97
2019-03-02T13:35:30.612Z,10.93
2019-03-02T13:38:00.698Z,12.73
2019-03-02T13:40:33.593Z,8.30
2019-03-02T13:43:19.117Z,11.53
2019-03-02T13:45:55.428Z,14.50
2019-03-02T13:48:40.682Z,12.67
2019-03-02T13:51:30.046Z,10.20
2019-03-02T13:54:02.079Z,11.90
2019-03-02T13:56:33.709Z,11.13
2019-03-02T13:59:03.788Z,7.00
2019-03-02T14:01:48.664Z,6.23
2019-03-02T14:04:28.225Z,10.73
2019-03-02T14:07:14.288Z,8.43
2019-03-02T14:09:44.376Z,6.13
2019-03-02T14:12:20.857Z,9.40
2019-03-02T14:14:54.053Z,15.43
2019-03-02T14:17:39.454Z,4.93
2019-03-02T14:20:15.957Z,6.20
2019-03-02T14:22:58.113Z,6.10
2019-03-02T14:25:28.361Z,8.17
2019-03-02T14:28:07.240Z,14.43
2019-03-02T14:30:46.441Z,5.73
2019-03-02T14:33:25.702Z,7.27
2019-03-02T14:35:57.448Z,14.10
2019-03-02T14:38:38.189Z,8.00
2019-03-02T14:41:28.190Z,14.40
2019-03-02T14:44:11.120Z,19.60
2019-03-02T14:46:41.201Z,5.33
2019-03-02T14:49:17.272Z,3.87
2019-03-02T14:51:47.354Z,4.13
2019-03-02T14:54:29.552Z,2.10
2019-03-02T14:56:59.623Z,5.70
2019-03-02T14:59:38.574Z,3.67
2019-03-02T15:02:16.599Z,2.03
2019-03-02T15:05:02.285Z,3.83
2019-03-02T15:07:34.948Z,2.47
2019-03-02T15:10:08.740Z,2.00
2019-03-02T15:12:44.759Z,2.20
2019-03-02T15:15:21.178Z,2.60
2019-03-02T15:18:28.268Z,3.70
2019-03-02T15:20:57.050Z,2.53
2019-03-02T15:26:21.283Z,3.00
2019-03-02T15:29:10.030Z,3.13
2019-03-02T15:31:48.634Z,3.13
2019-03-02T15:34:30.805Z,1.90
2019-03-02T15:37:12.748Z,1.90
2019-03-02T15:39:55.076Z,2.50
2019-03-02T15:42:25.172Z,1.90
2019-03-02T15:45:11.644Z,3.77
2019-03-02T15:47:41.740Z,2.93
2019-03-02T15:50:17.271Z,3.30
2019-03-02T15:52:48.250Z,1.80
2019-03-02T15:55:35.257Z,2.50
2019-03-02T15:58:14.555Z,2.20
2019-03-02T16:00:46.550Z,2.60
2019-03-02T16:03:22.245Z,4.87
2019-03-02T16:06:07.632Z,2.60
2019-03-02T16:08:54.137Z,2.47
2019-03-02T16:11:32.170Z,2.63
2019-03-02T16:14:11.127Z,2.23
2019-03-02T16:16:44.332Z,3.17
2019-03-02T16:19:30.546Z,4.03
2019-03-02T16:22:03.501Z,4.10
2019-03-02T16:24:45.192Z,3.87
2019-03-02T16:27:15.368Z,2.63
2019-03-02T16:29:48.667Z,4.40
2019-03-02T16:32:20.227Z,3.10
2019-03-02T16:34:59.900Z,3.97
2019-03-02T16:37:34.959Z,4.23
2019-03-02T16:40:23.056Z,6.10
2019-03-02T16:43:05.447Z,6.67
2019-03-02T16:45:41.289Z,3.20
2019-03-02T16:48:28.993Z,5.50
2019-03-02T16:51:08.500Z,2.93
2019-03-02T16:53:41.641Z,4.30
2019-03-02T16:56:21.287Z,3.50
2019-03-02T16:59:01.632Z,3.33
2019-03-02T17:01:31.788Z,4.10
2019-03-02T17:04:04.352Z,2.83
2019-03-02T17:06:37.584Z,4.40
2019-03-02T17:09:24.933Z,4.73
2019-03-02T17:12:04.397Z,3.33
2019-03-02T17:14:50.894Z,4.17
2019-03-02T17:17:29.769Z,5.37
2019-03-02T17:20:01.373Z,4.83
2019-03-02T17:22:32.646Z,3.83
2019-03-02T17:25:12.821Z,4.10
2019-03-02T17:27:45.860Z,5.07
2019-03-02T17:30:21.349Z,4.07
2019-03-02T17:32:51.062Z,4.50
2019-03-02T17:35:38.636Z,4.80
2019-03-02T17:38:23.969Z,3.23
2019-03-02T17:40:54.069Z,5.77
2019-03-02T17:43:24.146Z,3.40
2019-03-02T17:46:07.597Z,3.23
2019-03-02T17:48:38.165Z,3.37
2019-03-02T17:51:23.563Z,3.63
2019-03-02T17:53:59.806Z,3.87
2019-03-02T17:56:28.266Z,3.20
2019-03-02T17:59:04.180Z,4.20
2019-03-02T18:01:45.795Z,3.70
2019-03-02T18:04:21.956Z,2.67
2019-03-02T18:07:00.659Z,3.20
2019-03-02T18:09:30.744Z,3.33
2019-03-02T18:12:03.532Z,2.70
2019-03-02T18:14:51.963Z,3.47
2019-03-02T18:17:22.060Z,4.30
2019-03-02T18:19:50.512Z,4.07
2019-03-02T18:22:20.060Z,3.73
2019-03-02T18:24:48.796Z,3.93
2019-03-02T18:27:17.280Z,3.33
2019-03-02T18:29:45.728Z,3.90
2019-03-02T18:32:14.292Z,4.10
2019-03-02T18:34:42.891Z,3.63
2019-03-02T18:37:11.333Z,4.53
2019-03-02T18:39:39.897Z,4.03
2019-03-02T18:42:08.472Z,4.17
2019-03-02T18:44:36.929Z,4.07
2019-03-02T18:47:05.778Z,3.70
2019-03-02T18:49:36.594Z,3.93
2019-03-02T18:52:25.467Z,4.37
2019-03-02T18:54:53.933Z,7.13
2019-03-02T18:57:22.380Z,4.17
2019-03-02T18:59:51.137Z,5.20
2019-03-02T19:02:19.576Z,4.53
2019-03-02T19:04:48.110Z,5.07
2019-03-02T19:07:16.546Z,6.23
2019-03-02T19:09:45.255Z,5.77
2019-03-02T19:12:13.759Z,5.60
2019-03-02T19:14:42.215Z,7.27
2019-03-02T19:17:10.729Z,7.20
2019-03-02T19:19:39.185Z,8.60
2019-03-02T19:22:07.681Z,7.53
2019-03-02T19:24:36.165Z,7.53
2019-03-02T19:27:04.736Z,7.40
2019-03-02T19:29:33.188Z,7.63
2019-03-02T19:32:01.625Z,5.60
2019-03-02T19:34:30.088Z,7.30
2019-03-02T19:36:58.521Z,8.87
2019-03-02T19:39:26.954Z,5.77
2019-03-02T19:41:55.413Z,6.00
2019-03-02T19:44:23.913Z,7.50
2019-03-02T19:46:52.369Z,8.10
2019-03-02T19:49:23.485Z,6.50
2019-03-02T19:51:51.938Z,8.00
2019-03-02T19:54:20.373Z,4.80
2019-03-02T19:56:48.833Z,7.90
2019-03-02T19:59:17.265Z,6.63
2019-03-02T20:01:47.357Z,7.27
2019-03-02T20:04:15.913Z,10.43
2019-03-02T20:06:44.444Z,9.83
2019-03-02T20:09:13.042Z,11.10
2019-03-02T20:11:41.492Z,9.67
2019-03-02T20:14:09.926Z,8.87
2019-03-02T20:16:38.395Z,9.50
2019-03-02T20:19:07.009Z,10.37
2019-03-02T20:21:35.528Z,10.47
2019-03-02T20:24:06.363Z,9.03
2019-03-02T20:26:34.589Z,10.63
2019-03-02T20:29:03.044Z,12.83
2019-03-02T20:31:31.559Z,7.93
2019-03-02T20:34:00.018Z,8.77
2019-03-02T20:36:28.470Z,9.60
2019-03-02T20:38:56.996Z,10.27
2019-03-02T20:41:25.431Z,10.63
2019-03-02T20:43:53.884Z,12.53
2019-03-02T20:46:22.341Z,10.07
2019-03-02T20:48:50.844Z,9.57
2019-03-02T20:51:19.353Z,11.83
2019-03-02T20:53:47.817Z,11.17
2019-03-02T20:56:16.316Z,8.10
2019-03-02T20:58:44.764Z,8.60
2019-03-02T21:01:13.476Z,7.80
2019-03-02T21:03:42.028Z,9.77
2019-03-02T21:06:10.497Z,11.03
2019-03-02T21:08:38.949Z,10.20
2019-03-02T21:11:07.443Z,8.27
2019-03-02T21:13:35.890Z,7.93
2019-03-02T21:16:04.466Z,13.50
2019-03-02T21:18:32.974Z,10.87
2019-03-02T21:21:01.487Z,9.27
2019-03-02T21:23:29.931Z,9.50
2019-03-02T21:25:58.452Z,8.87
2019-03-02T21:28:26.884Z,9.37
2019-03-02T21:30:55.337Z,12.27
2019-03-02T21:33:23.769Z,10.13
2019-03-02T21:35:52.323Z,10.17
2019-03-02T21:38:20.766Z,9.47
2019-03-02T21:40:49.231Z,9.40
2019-03-02T21:43:17.815Z,12.47
2019-03-02T21:45:46.313Z,13.10
2019-03-02T21:48:15.144Z,14.47
2019-03-02T21:50:52.643Z,12.13
2019-03-02T21:53:21.081Z,14.90
2019-03-02T21:55:49.693Z,13.60
2019-03-02T21:58:18.197Z,16.00
2019-03-02T22:00:46.725Z,12.87
2019-03-02T22:03:15.269Z,11.67
2019-03-02T22:05:43.965Z,13.03
2019-03-02T22:08:12.414Z,12.07
2019-03-02T22:11:04.845Z,8.47
2019-03-02T22:13:33.361Z,13.13
2019-03-02T22:16:01.841Z,9.17
2019-03-02T22:18:30.277Z,7.70
2019-03-02T22:20:58.726Z,8.40
2019-03-02T22:23:27.164Z,7.73
2019-03-02T22:25:55.614Z,6.30
2019-03-02T22:28:24.111Z,12.47
2019-03-02T22:30:52.548Z,8.87
2019-03-02T22:33:21.009Z,4.60
2019-03-02T22:35:49.500Z,8.00
2019-03-02T22:38:17.948Z,7.43
2019-03-02T22:40:46.396Z,5.67
2019-03-02T22:43:14.841Z,7.57
2019-03-02T22:45:43.286Z,7.23
2019-03-02T22:48:11.736Z,8.13
2019-03-02T22:50:40.320Z,9.80
2019-03-02T22:53:08.925Z,6.37
2019-03-02T22:55:37.357Z,8.43
2019-03-02T22:58:05.868Z,11.70
2019-03-02T23:00:45.992Z,6.83
2019-03-02T23:03:13.380Z,6.60
2019-03-02T23:05:41.969Z,10.27
2019-03-02T23:08:10.553Z,11.63
2019-03-02T23:10:39.001Z,4.70
2019-03-02T23:13:07.431Z,6.33
2019-03-02T23:15:35.991Z,7.67
2019-03-02T23:18:04.576Z,5.23
2019-03-02T23:20:33.032Z,6.30
2019-03-02T23:23:01.463Z,7.70
2019-03-02T23:25:29.917Z,6.73
2019-03-02T23:27:58.361Z,4.20
2019-03-02T23:30:27.287Z,5.03
2019-03-02T23:32:55.798Z,3.40
2019-03-02T23:35:24.355Z,7.20
2019-03-02T23:37:52.949Z,4.10
2019-03-02T23:40:23.577Z,6.33
2019-03-02T23:42:52.171Z,5.40
2019-03-02T23:45:21.039Z,6.50
2019-03-02T23:47:49.624Z,6.83
2019-03-02T23:50:18.192Z,5.10
2019-03-02T23:52:46.737Z,5.97
2019-03-02T23:55:15.804Z,5.20
2019-03-02T23:57:44.551Z,6.70
